sensor_id;sensor_type;location;lat;lon;timestamp;P1;durP1;ratioP1;P2;durP2;ratioP2
24407;SDS011;12542;50.924;4.516;2023-02-13T00:01:37;49.85;;;23.73;;
24407;SDS011;12542;50.924;4.516;2023-02-13T00:04:03;54.42;;;24.65;;
24407;SDS011;12542;50.924;4.516;2023-02-13T00:06:29;46.50;;;24.23;;
24407;SDS011;12542;50.924;4.516;2023-02-13T00:08:55;48.88;;;23.10;;
24407;SDS011;12542;50.924;4.516;2023-02-13T00:11:20;45.70;;;21.25;;
24407;SDS011;12542;50.924;4.516;2023-02-13T00:13:46;48.88;;;24.40;;
24407;SDS011;12542;50.924;4.516;2023-02-13T00:16:12;52.00;;;21.70;;
24407;SDS011;12542;50.924;4.516;2023-02-13T00:18:37;47.65;;;22.48;;
24407;SDS011;12542;50.924;4.516;2023-02-13T00:21:07;47.97;;;21.27;;
24407;SDS011;12542;50.924;4.516;2023-02-13T00:23:35;49.10;;;22.95;;
24407;SDS011;12542;50.924;4.516;2023-02-13T00:26:04;47.10;;;23.67;;
24407;SDS011;12542;50.924;4.516;2023-02-13T00:28:32;58.28;;;24.58;;
24407;SDS011;12542;50.924;4.516;2023-02-13T00:31:07;62.83;;;28.95;;
24407;SDS011;12542;50.924;4.516;2023-02-13T00:33:35;51.58;;;24.48;;
24407;SDS011;12542;50.924;4.516;2023-02-13T00:38:34;52.67;;;23.58;;
24407;SDS011;12542;50.924;4.516;2023-02-13T00:41:00;54.70;;;25.27;;
24407;SDS011;12542;50.924;4.516;2023-02-13T00:43:26;52.40;;;25.98;;
24407;SDS011;12542;50.924;4.516;2023-02-13T00:45:52;57.15;;;27.33;;
24407;SDS011;12542;50.924;4.516;2023-02-13T00:48:18;54.10;;;24.58;;
24407;SDS011;12542;50.924;4.516;2023-02-13T00:50:44;55.72;;;26.45;;
24407;SDS011;12542;50.924;4.516;2023-02-13T00:53:11;57.38;;;26.10;;
24407;SDS011;12542;50.924;4.516;2023-02-13T00:55:36;50.28;;;24.55;;
24407;SDS011;12542;50.924;4.516;2023-02-13T00:58:04;54.70;;;26.17;;
24407;SDS011;12542;50.924;4.516;2023-02-13T01:00:30;46.55;;;22.08;;
24407;SDS011;12542;50.924;4.516;2023-02-13T01:02:56;55.63;;;22.67;;
24407;SDS011;12542;50.924;4.516;2023-02-13T01:05:21;53.53;;;22.90;;
24407;SDS011;12542;50.924;4.516;2023-02-13T01:07:47;56.53;;;22.85;;
24407;SDS011;12542;50.924;4.516;2023-02-13T01:10:14;53.75;;;23.48;;
24407;SDS011;12542;50.924;4.516;2023-02-13T01:12:40;52.55;;;22.33;;
24407;SDS011;12542;50.924;4.516;2023-02-13T01:15:06;43.03;;;19.77;;
24407;SDS011;12542;50.924;4.516;2023-02-13T01:17:32;45.25;;;20.17;;
24407;SDS011;12542;50.924;4.516;2023-02-13T01:19:57;40.30;;;19.23;;
24407;SDS011;12542;50.924;4.516;2023-02-13T01:22:23;40.30;;;19.52;;
24407;SDS011;12542;50.924;4.516;2023-02-13T01:24:48;37.63;;;19.30;;
24407;SDS011;12542;50.924;4.516;2023-02-13T01:27:14;43.15;;;19.38;;
24407;SDS011;12542;50.924;4.516;2023-02-13T01:29:40;58.78;;;21.77;;
24407;SDS011;12542;50.924;4.516;2023-02-13T01:32:05;80.88;;;20.90;;
24407;SDS011;12542;50.924;4.516;2023-02-13T01:34:33;59.75;;;20.17;;
24407;SDS011;12542;50.924;4.516;2023-02-13T01:36:59;57.63;;;18.55;;
24407;SDS011;12542;50.924;4.516;2023-02-13T01:39:25;44.55;;;20.48;;
24407;SDS011;12542;50.924;4.516;2023-02-13T01:41:51;57.00;;;20.10;;
24407;SDS011;12542;50.924;4.516;2023-02-13T01:52:45;35.65;;;18.55;;
24407;SDS011;12542;50.924;4.516;2023-02-13T01:55:14;43.33;;;19.92;;
24407;SDS011;12542;50.924;4.516;2023-02-13T01:57:41;35.05;;;16.77;;
24407;SDS011;12542;50.924;4.516;2023-02-13T02:00:11;36.72;;;19.65;;
24407;SDS011;12542;50.924;4.516;2023-02-13T02:02:40;46.00;;;20.02;;
24407;SDS011;12542;50.924;4.516;2023-02-13T02:05:15;86.75;;;20.23;;
24407;SDS011;12542;50.924;4.516;2023-02-13T02:07:42;104.78;;;21.42;;
24407;SDS011;12542;50.924;4.516;2023-02-13T02:10:18;147.13;;;22.70;;
24407;SDS011;12542;50.924;4.516;2023-02-13T02:15:27;116.05;;;21.13;;
24407;SDS011;12542;50.924;4.516;2023-02-13T02:17:56;169.55;;;23.65;;
24407;SDS011;12542;50.924;4.516;2023-02-13T02:28:35;142.60;;;25.58;;
24407;SDS011;12542;50.924;4.516;2023-02-13T02:34:50;206.52;;;23.05;;
24407;SDS011;12542;50.924;4.516;2023-02-13T02:40:42;223.57;;;28.30;;
24407;SDS011;12542;50.924;4.516;2023-02-13T02:46:16;358.05;;;35.88;;
24407;SDS011;12542;50.924;4.516;2023-02-13T02:48:47;310.27;;;34.05;;
24407;SDS011;12542;50.924;4.516;2023-02-13T02:57:43;269.23;;;34.03;;
24407;SDS011;12542;50.924;4.516;2023-02-13T03:00:30;215.15;;;27.10;;
24407;SDS011;12542;50.924;4.516;2023-02-13T03:03:18;258.33;;;31.00;;
24407;SDS011;12542;50.924;4.516;2023-02-13T03:06:08;214.35;;;27.63;;
24407;SDS011;12542;50.924;4.516;2023-02-13T03:08:59;221.98;;;23.55;;
24407;SDS011;12542;50.924;4.516;2023-02-13T03:11:48;206.27;;;20.98;;
24407;SDS011;12542;50.924;4.516;2023-02-13T03:14:34;178.50;;;21.02;;
24407;SDS011;12542;50.924;4.516;2023-02-13T03:17:01;240.52;;;22.85;;
24407;SDS011;12542;50.924;4.516;2023-02-13T03:25:25;190.45;;;23.33;;
24407;SDS011;12542;50.924;4.516;2023-02-13T03:42:30;179.15;;;20.58;;
24407;SDS011;12542;50.924;4.516;2023-02-13T03:45:08;169.88;;;21.50;;
24407;SDS011;12542;50.924;4.516;2023-02-13T03:47:59;188.57;;;22.02;;
24407;SDS011;12542;50.924;4.516;2023-02-13T03:50:33;133.27;;;21.48;;
24407;SDS011;12542;50.924;4.516;2023-02-13T03:53:07;147.30;;;21.00;;
24407;SDS011;12542;50.924;4.516;2023-02-13T03:55:37;103.05;;;15.52;;
24407;SDS011;12542;50.924;4.516;2023-02-13T03:58:26;191.70;;;23.85;;
24407;SDS011;12542;50.924;4.516;2023-02-13T04:01:25;257.35;;;23.17;;
24407;SDS011;12542;50.924;4.516;2023-02-13T04:04:06;140.43;;;20.30;;
24407;SDS011;12542;50.924;4.516;2023-02-13T04:09:34;165.30;;;21.40;;
24407;SDS011;12542;50.924;4.516;2023-02-13T04:14:47;114.85;;;19.58;;
24407;SDS011;12542;50.924;4.516;2023-02-13T04:17:29;99.95;;;19.63;;
24407;SDS011;12542;50.924;4.516;2023-02-13T04:20:00;88.72;;;19.80;;
24407;SDS011;12542;50.924;4.516;2023-02-13T04:22:26;129.10;;;20.40;;
24407;SDS011;12542;50.924;4.516;2023-02-13T04:24:52;71.70;;;18.85;;
24407;SDS011;12542;50.924;4.516;2023-02-13T04:27:18;71.38;;;20.35;;
24407;SDS011;12542;50.924;4.516;2023-02-13T04:29:46;72.32;;;20.85;;
24407;SDS011;12542;50.924;4.516;2023-02-13T04:32:12;65.55;;;19.02;;
24407;SDS011;12542;50.924;4.516;2023-02-13T04:34:38;63.55;;;19.17;;
24407;SDS011;12542;50.924;4.516;2023-02-13T04:37:04;67.10;;;20.50;;
24407;SDS011;12542;50.924;4.516;2023-02-13T04:39:30;50.20;;;19.80;;
24407;SDS011;12542;50.924;4.516;2023-02-13T04:41:55;44.42;;;18.98;;
24407;SDS011;12542;50.924;4.516;2023-02-13T04:44:21;56.58;;;19.05;;
24407;SDS011;12542;50.924;4.516;2023-02-13T04:46:47;45.28;;;19.25;;
24407;SDS011;12542;50.924;4.516;2023-02-13T04:49:12;42.58;;;18.45;;
24407;SDS011;12542;50.924;4.516;2023-02-13T04:51:38;48.42;;;19.48;;
24407;SDS011;12542;50.924;4.516;2023-02-13T04:54:04;41.22;;;19.40;;
24407;SDS011;12542;50.924;4.516;2023-02-13T04:56:29;43.15;;;18.88;;
24407;SDS011;12542;50.924;4.516;2023-02-13T04:58:55;61.75;;;19.85;;
24407;SDS011;12542;50.924;4.516;2023-02-13T05:01:20;70.57;;;18.85;;
24407;SDS011;12542;50.924;4.516;2023-02-13T05:03:47;87.53;;;20.25;;
24407;SDS011;12542;50.924;4.516;2023-02-13T05:06:13;65.55;;;19.52;;
24407;SDS011;12542;50.924;4.516;2023-02-13T05:08:39;47.35;;;19.52;;
24407;SDS011;12542;50.924;4.516;2023-02-13T05:11:05;54.70;;;18.40;;
24407;SDS011;12542;50.924;4.516;2023-02-13T05:13:31;44.50;;;17.90;;
24407;SDS011;12542;50.924;4.516;2023-02-13T05:15:57;40.20;;;17.17;;
24407;SDS011;12542;50.924;4.516;2023-02-13T05:18:22;40.47;;;18.20;;
24407;SDS011;12542;50.924;4.516;2023-02-13T05:20:48;41.50;;;18.80;;
24407;SDS011;12542;50.924;4.516;2023-02-13T05:23:34;60.15;;;17.95;;
24407;SDS011;12542;50.924;4.516;2023-02-13T05:25:59;50.58;;;18.45;;
24407;SDS011;12542;50.924;4.516;2023-02-13T05:28:25;38.20;;;16.50;;
24407;SDS011;12542;50.924;4.516;2023-02-13T05:31:09;33.65;;;17.60;;
24407;SDS011;12542;50.924;4.516;2023-02-13T05:33:35;45.20;;;17.05;;
24407;SDS011;12542;50.924;4.516;2023-02-13T05:36:00;44.08;;;16.88;;
24407;SDS011;12542;50.924;4.516;2023-02-13T05:38:26;33.90;;;17.55;;
24407;SDS011;12542;50.924;4.516;2023-02-13T05:40:52;38.40;;;18.50;;
24407;SDS011;12542;50.924;4.516;2023-02-13T05:43:18;49.38;;;17.52;;
24407;SDS011;12542;50.924;4.516;2023-02-13T05:45:44;52.05;;;18.05;;
24407;SDS011;12542;50.924;4.516;2023-02-13T05:48:09;44.38;;;18.98;;
24407;SDS011;12542;50.924;4.516;2023-02-13T05:50:35;53.08;;;18.58;;
24407;SDS011;12542;50.924;4.516;2023-02-13T05:53:01;47.20;;;17.73;;
24407;SDS011;12542;50.924;4.516;2023-02-13T05:55:27;37.70;;;17.88;;
24407;SDS011;12542;50.924;4.516;2023-02-13T05:57:56;34.30;;;17.50;;
24407;SDS011;12542;50.924;4.516;2023-02-13T06:00:22;31.33;;;17.00;;
24407;SDS011;12542;50.924;4.516;2023-02-13T06:02:48;31.65;;;16.77;;
24407;SDS011;12542;50.924;4.516;2023-02-13T06:05:13;32.72;;;16.63;;
24407;SDS011;12542;50.924;4.516;2023-02-13T06:07:39;34.97;;;17.17;;
24407;SDS011;12542;50.924;4.516;2023-02-13T06:10:05;32.58;;;17.98;;
24407;SDS011;12542;50.924;4.516;2023-02-13T06:12:31;36.10;;;18.52;;
24407;SDS011;12542;50.924;4.516;2023-02-13T06:14:57;32.72;;;18.58;;
24407;SDS011;12542;50.924;4.516;2023-02-13T06:17:23;36.45;;;18.63;;
24407;SDS011;12542;50.924;4.516;2023-02-13T06:19:48;34.63;;;17.67;;
24407;SDS011;12542;50.924;4.516;2023-02-13T06:22:14;34.50;;;18.13;;
24407;SDS011;12542;50.924;4.516;2023-02-13T06:24:39;32.72;;;16.48;;
24407;SDS011;12542;50.924;4.516;2023-02-13T06:27:05;34.85;;;18.63;;
24407;SDS011;12542;50.924;4.516;2023-02-13T06:29:31;36.22;;;18.60;;
24407;SDS011;12542;50.924;4.516;2023-02-13T06:31:57;31.77;;;17.13;;
24407;SDS011;12542;50.924;4.516;2023-02-13T06:34:22;31.02;;;17.45;;
24407;SDS011;12542;50.924;4.516;2023-02-13T06:36:48;30.85;;;17.23;;
24407;SDS011;12542;50.924;4.516;2023-02-13T06:39:14;30.10;;;16.90;;
24407;SDS011;12542;50.924;4.516;2023-02-13T06:41:40;31.35;;;17.00;;
24407;SDS011;12542;50.924;4.516;2023-02-13T06:44:06;31.80;;;17.33;;
24407;SDS011;12542;50.924;4.516;2023-02-13T06:46:32;35.10;;;16.35;;
24407;SDS011;12542;50.924;4.516;2023-02-13T06:48:57;29.55;;;16.85;;
24407;SDS011;12542;50.924;4.516;2023-02-13T06:51:23;30.45;;;17.00;;
24407;SDS011;12542;50.924;4.516;2023-02-13T06:53:49;32.13;;;17.30;;
24407;SDS011;12542;50.924;4.516;2023-02-13T06:56:15;29.98;;;17.42;;
24407;SDS011;12542;50.924;4.516;2023-02-13T06:58:40;31.67;;;16.80;;
24407;SDS011;12542;50.924;4.516;2023-02-13T07:01:06;29.83;;;16.58;;
24407;SDS011;12542;50.924;4.516;2023-02-13T07:03:32;33.55;;;17.50;;
24407;SDS011;12542;50.924;4.516;2023-02-13T07:05:57;33.45;;;17.73;;
24407;SDS011;12542;50.924;4.516;2023-02-13T07:08:23;33.33;;;17.00;;
24407;SDS011;12542;50.924;4.516;2023-02-13T07:10:49;31.00;;;17.02;;
24407;SDS011;12542;50.924;4.516;2023-02-13T07:13:15;31.25;;;16.80;;
24407;SDS011;12542;50.924;4.516;2023-02-13T10:31:16;24.08;;;12.40;;
24407;SDS011;12542;50.924;4.516;2023-02-13T10:33:49;18.08;;;12.02;;
24407;SDS011;12542;50.924;4.516;2023-02-13T10:36:21;21.52;;;12.27;;
24407;SDS011;12542;50.924;4.516;2023-02-13T10:41:34;20.02;;;11.70;;
24407;SDS011;12542;50.924;4.516;2023-02-13T10:44:38;21.85;;;12.18;;
24407;SDS011;12542;50.924;4.516;2023-02-13T10:53:29;20.73;;;11.90;;
24407;SDS011;12542;50.924;4.516;2023-02-13T11:01:19;21.80;;;12.75;;
24407;SDS011;12542;50.924;4.516;2023-02-13T11:04:03;20.63;;;12.43;;
24407;SDS011;12542;50.924;4.516;2023-02-13T11:08:56;19.95;;;11.48;;
24407;SDS011;12542;50.924;4.516;2023-02-13T11:19:33;18.40;;;11.27;;
24407;SDS011;12542;50.924;4.516;2023-02-13T11:22:05;21.55;;;11.93;;
24407;SDS011;12542;50.924;4.516;2023-02-13T11:24:35;20.98;;;11.23;;
24407;SDS011;12542;50.924;4.516;2023-02-13T11:27:04;24.73;;;12.25;;
24407;SDS011;12542;50.924;4.516;2023-02-13T11:29:33;21.05;;;11.60;;
24407;SDS011;12542;50.924;4.516;2023-02-13T11:34:30;17.30;;;10.65;;
24407;SDS011;12542;50.924;4.516;2023-02-13T11:39:57;19.35;;;10.35;;
24407;SDS011;12542;50.924;4.516;2023-02-13T11:44:53;22.73;;;11.30;;
24407;SDS011;12542;50.924;4.516;2023-02-13T11:47:33;20.85;;;10.98;;
24407;SDS011;12542;50.924;4.516;2023-02-13T11:50:18;19.00;;;10.60;;
24407;SDS011;12542;50.924;4.516;2023-02-13T11:53:00;17.83;;;10.32;;
24407;SDS011;12542;50.924;4.516;2023-02-13T11:55:32;18.98;;;10.05;;
24407;SDS011;12542;50.924;4.516;2023-02-13T11:58:15;19.40;;;10.73;;
24407;SDS011;12542;50.924;4.516;2023-02-13T12:00:51;16.95;;;10.23;;
24407;SDS011;12542;50.924;4.516;2023-02-13T12:06:40;18.73;;;10.00;;
24407;SDS011;12542;50.924;4.516;2023-02-13T12:09:21;18.08;;;11.13;;
24407;SDS011;12542;50.924;4.516;2023-02-13T12:11:51;18.05;;;11.45;;
24407;SDS011;12542;50.924;4.516;2023-02-13T12:14:23;18.38;;;10.60;;
24407;SDS011;12542;50.924;4.516;2023-02-13T12:16:58;19.83;;;10.50;;
24407;SDS011;12542;50.924;4.516;2023-02-13T12:19:42;18.65;;;10.15;;
24407;SDS011;12542;50.924;4.516;2023-02-13T12:22:29;15.63;;;9.65;;
24407;SDS011;12542;50.924;4.516;2023-02-13T12:30:36;17.17;;;9.80;;
24407;SDS011;12542;50.924;4.516;2023-02-13T12:38:57;16.77;;;9.73;;
24407;SDS011;12542;50.924;4.516;2023-02-13T12:44:33;14.82;;;9.88;;
24407;SDS011;12542;50.924;4.516;2023-02-13T12:47:30;16.77;;;9.65;;
24407;SDS011;12542;50.924;4.516;2023-02-13T12:50:35;16.35;;;9.18;;
24407;SDS011;12542;50.924;4.516;2023-02-13T12:53:30;17.30;;;9.63;;
24407;SDS011;12542;50.924;4.516;2023-02-13T13:04:14;17.27;;;9.50;;
24407;SDS011;12542;50.924;4.516;2023-02-13T13:06:55;15.65;;;10.13;;
24407;SDS011;12542;50.924;4.516;2023-02-13T13:18:48;15.95;;;9.05;;
24407;SDS011;12542;50.924;4.516;2023-02-13T13:21:25;18.88;;;8.13;;
24407;SDS011;12542;50.924;4.516;2023-02-13T13:24:39;14.30;;;8.75;;
24407;SDS011;12542;50.924;4.516;2023-02-13T13:27:19;16.08;;;9.60;;
24407;SDS011;12542;50.924;4.516;2023-02-13T13:30:04;19.77;;;9.60;;
24407;SDS011;12542;50.924;4.516;2023-02-13T13:32:38;16.40;;;9.52;;
24407;SDS011;12542;50.924;4.516;2023-02-13T13:35:11;17.83;;;10.13;;
24407;SDS011;12542;50.924;4.516;2023-02-13T13:37:41;16.23;;;9.18;;
24407;SDS011;12542;50.924;4.516;2023-02-13T13:42:53;13.60;;;8.65;;
24407;SDS011;12542;50.924;4.516;2023-02-13T13:45:33;15.85;;;9.20;;
24407;SDS011;12542;50.924;4.516;2023-02-13T13:51:00;15.45;;;8.85;;
24407;SDS011;12542;50.924;4.516;2023-02-13T13:53:26;14.05;;;7.95;;
24407;SDS011;12542;50.924;4.516;2023-02-13T13:58:24;14.02;;;8.10;;
24407;SDS011;12542;50.924;4.516;2023-02-13T14:03:40;16.42;;;8.55;;
24407;SDS011;12542;50.924;4.516;2023-02-13T14:07:12;15.85;;;9.13;;
24407;SDS011;12542;50.924;4.516;2023-02-13T14:09:53;14.57;;;8.95;;
24407;SDS011;12542;50.924;4.516;2023-02-13T14:12:34;16.45;;;9.02;;
24407;SDS011;12542;50.924;4.516;2023-02-13T14:14:53;18.80;;;9.10;;
24407;SDS011;12542;50.924;4.516;2023-02-13T14:22:46;17.15;;;8.55;;
24407;SDS011;12542;50.924;4.516;2023-02-13T14:25:45;12.98;;;8.02;;
24407;SDS011;12542;50.924;4.516;2023-02-13T14:28:04;17.48;;;9.00;;
24407;SDS011;12542;50.924;4.516;2023-02-13T14:30:31;16.65;;;9.43;;
24407;SDS011;12542;50.924;4.516;2023-02-13T14:33:02;15.60;;;9.43;;
24407;SDS011;12542;50.924;4.516;2023-02-13T14:35:47;14.80;;;9.73;;
24407;SDS011;12542;50.924;4.516;2023-02-13T14:38:25;14.05;;;8.27;;
24407;SDS011;12542;50.924;4.516;2023-02-13T14:40:52;16.85;;;8.82;;
24407;SDS011;12542;50.924;4.516;2023-02-13T14:46:26;13.40;;;8.25;;
24407;SDS011;12542;50.924;4.516;2023-02-13T14:48:59;14.45;;;8.77;;
24407;SDS011;12542;50.924;4.516;2023-02-13T14:57:07;13.02;;;8.70;;
24407;SDS011;12542;50.924;4.516;2023-02-13T14:59:46;13.55;;;8.32;;
24407;SDS011;12542;50.924;4.516;2023-02-13T15:02:25;16.80;;;9.10;;
24407;SDS011;12542;50.924;4.516;2023-02-13T15:07:34;16.38;;;8.50;;
24407;SDS011;12542;50.924;4.516;2023-02-13T15:12:43;14.02;;;8.65;;
24407;SDS011;12542;50.924;4.516;2023-02-13T15:15:23;13.85;;;7.82;;
24407;SDS011;12542;50.924;4.516;2023-02-13T15:17:56;13.53;;;7.20;;
24407;SDS011;12542;50.924;4.516;2023-02-13T15:20:34;14.73;;;8.55;;
24407;SDS011;12542;50.924;4.516;2023-02-13T15:23:06;18.13;;;8.70;;
24407;SDS011;12542;50.924;4.516;2023-02-13T15:25:39;13.98;;;8.02;;
24407;SDS011;12542;50.924;4.516;2023-02-13T15:28:14;11.65;;;7.57;;
24407;SDS011;12542;50.924;4.516;2023-02-13T15:30:51;15.05;;;8.07;;
24407;SDS011;12542;50.924;4.516;2023-02-13T15:33:20;18.92;;;8.95;;
24407;SDS011;12542;50.924;4.516;2023-02-13T15:35:53;17.77;;;8.68;;
24407;SDS011;12542;50.924;4.516;2023-02-13T15:40:51;13.45;;;7.88;;
24407;SDS011;12542;50.924;4.516;2023-02-13T15:43:38;13.23;;;8.05;;
24407;SDS011;12542;50.924;4.516;2023-02-13T15:46:20;13.27;;;7.15;;
24407;SDS011;12542;50.924;4.516;2023-02-13T15:48:53;11.98;;;6.85;;
24407;SDS011;12542;50.924;4.516;2023-02-13T15:51:22;11.18;;;6.72;;
24407;SDS011;12542;50.924;4.516;2023-02-13T15:53:53;14.60;;;7.40;;
24407;SDS011;12542;50.924;4.516;2023-02-13T15:56:24;16.38;;;7.22;;
24407;SDS011;12542;50.924;4.516;2023-02-13T15:58:51;12.10;;;6.65;;
24407;SDS011;12542;50.924;4.516;2023-02-13T16:01:18;12.65;;;7.57;;
24407;SDS011;12542;50.924;4.516;2023-02-13T16:03:45;12.77;;;6.82;;
24407;SDS011;12542;50.924;4.516;2023-02-13T16:06:18;11.02;;;6.32;;
24407;SDS011;12542;50.924;4.516;2023-02-13T16:08:50;11.57;;;7.22;;
24407;SDS011;12542;50.924;4.516;2023-02-13T16:11:33;11.43;;;6.45;;
24407;SDS011;12542;50.924;4.516;2023-02-13T16:14:21;17.23;;;8.25;;
24407;SDS011;12542;50.924;4.516;2023-02-13T16:16:53;12.93;;;7.53;;
24407;SDS011;12542;50.924;4.516;2023-02-13T16:19:31;15.75;;;7.55;;
24407;SDS011;12542;50.924;4.516;2023-02-13T16:22:03;16.73;;;9.98;;
24407;SDS011;12542;50.924;4.516;2023-02-13T16:24:38;15.05;;;10.60;;
24407;SDS011;12542;50.924;4.516;2023-02-13T16:27:10;15.45;;;11.13;;
24407;SDS011;12542;50.924;4.516;2023-02-13T16:29:38;19.23;;;9.25;;
24407;SDS011;12542;50.924;4.516;2023-02-13T16:32:21;15.75;;;7.72;;
24407;SDS011;12542;50.924;4.516;2023-02-13T16:34:52;19.63;;;10.35;;
24407;SDS011;12542;50.924;4.516;2023-02-13T16:37:27;15.52;;;7.75;;
24407;SDS011;12542;50.924;4.516;2023-02-13T16:39:55;32.67;;;18.50;;
24407;SDS011;12542;50.924;4.516;2023-02-13T16:42:21;21.17;;;10.82;;
24407;SDS011;12542;50.924;4.516;2023-02-13T16:44:47;19.58;;;9.45;;
24407;SDS011;12542;50.924;4.516;2023-02-13T16:47:30;76.93;;;40.38;;
24407;SDS011;12542;50.924;4.516;2023-02-13T16:50:01;42.55;;;23.35;;
24407;SDS011;12542;50.924;4.516;2023-02-13T16:52:27;28.67;;;16.58;;
24407;SDS011;12542;50.924;4.516;2023-02-13T16:54:54;73.30;;;38.50;;
24407;SDS011;12542;50.924;4.516;2023-02-13T16:57:21;67.97;;;36.45;;
24407;SDS011;12542;50.924;4.516;2023-02-13T17:02:45;21.83;;;11.25;;
24407;SDS011;12542;50.924;4.516;2023-02-13T17:05:21;21.85;;;10.52;;
24407;SDS011;12542;50.924;4.516;2023-02-13T17:07:53;22.65;;;12.60;;
24407;SDS011;12542;50.924;4.516;2023-02-13T17:10:29;49.53;;;29.75;;
24407;SDS011;12542;50.924;4.516;2023-02-13T17:12:58;28.05;;;13.98;;
24407;SDS011;12542;50.924;4.516;2023-02-13T17:15:47;22.20;;;11.27;;
24407;SDS011;12542;50.924;4.516;2023-02-13T17:18:13;25.25;;;14.32;;
24407;SDS011;12542;50.924;4.516;2023-02-13T17:20:40;20.08;;;11.27;;
24407;SDS011;12542;50.924;4.516;2023-02-13T17:23:12;21.40;;;11.48;;
24407;SDS011;12542;50.924;4.516;2023-02-13T17:25:41;24.52;;;11.93;;
24407;SDS011;12542;50.924;4.516;2023-02-13T17:30:39;18.50;;;10.80;;
24407;SDS011;12542;50.924;4.516;2023-02-13T17:33:06;26.50;;;15.10;;
24407;SDS011;12542;50.924;4.516;2023-02-13T17:35:39;27.52;;;14.05;;
24407;SDS011;12542;50.924;4.516;2023-02-13T17:38:05;25.88;;;14.25;;
24407;SDS011;12542;50.924;4.516;2023-02-13T17:40:32;30.13;;;16.40;;
24407;SDS011;12542;50.924;4.516;2023-02-13T17:42:58;38.13;;;21.35;;
24407;SDS011;12542;50.924;4.516;2023-02-13T17:45:25;23.52;;;13.98;;
24407;SDS011;12542;50.924;4.516;2023-02-13T17:47:52;28.00;;;16.75;;
24407;SDS011;12542;50.924;4.516;2023-02-13T17:50:19;31.80;;;17.50;;
24407;SDS011;12542;50.924;4.516;2023-02-13T17:52:45;28.38;;;16.00;;
24407;SDS011;12542;50.924;4.516;2023-02-13T17:55:17;37.92;;;19.15;;
24407;SDS011;12542;50.924;4.516;2023-02-13T17:57:45;46.95;;;23.33;;
24407;SDS011;12542;50.924;4.516;2023-02-13T18:00:11;46.42;;;23.33;;
24407;SDS011;12542;50.924;4.516;2023-02-13T18:02:37;22.60;;;13.80;;
24407;SDS011;12542;50.924;4.516;2023-02-13T18:05:03;35.08;;;16.55;;
24407;SDS011;12542;50.924;4.516;2023-02-13T18:07:30;34.45;;;17.83;;
24407;SDS011;12542;50.924;4.516;2023-02-13T18:09:56;33.63;;;16.10;;
24407;SDS011;12542;50.924;4.516;2023-02-13T18:12:24;27.20;;;15.95;;
24407;SDS011;12542;50.924;4.516;2023-02-13T18:14:50;38.03;;;23.25;;
24407;SDS011;12542;50.924;4.516;2023-02-13T18:17:17;36.88;;;18.00;;
24407;SDS011;12542;50.924;4.516;2023-02-13T18:19:43;61.00;;;28.85;;
24407;SDS011;12542;50.924;4.516;2023-02-13T18:22:09;69.47;;;33.72;;
24407;SDS011;12542;50.924;4.516;2023-02-13T18:24:39;58.22;;;31.05;;
24407;SDS011;12542;50.924;4.516;2023-02-13T18:27:06;69.55;;;34.00;;
24407;SDS011;12542;50.924;4.516;2023-02-13T18:29:33;56.00;;;30.55;;
24407;SDS011;12542;50.924;4.516;2023-02-13T18:32:02;49.88;;;27.45;;
24407;SDS011;12542;50.924;4.516;2023-02-13T18:34:29;61.88;;;34.40;;
24407;SDS011;12542;50.924;4.516;2023-02-13T18:36:55;55.85;;;29.05;;
24407;SDS011;12542;50.924;4.516;2023-02-13T18:39:21;48.60;;;26.35;;
24407;SDS011;12542;50.924;4.516;2023-02-13T18:41:47;44.63;;;24.55;;
24407;SDS011;12542;50.924;4.516;2023-02-13T18:44:12;45.70;;;25.95;;
24407;SDS011;12542;50.924;4.516;2023-02-13T18:46:38;38.88;;;24.85;;
24407;SDS011;12542;50.924;4.516;2023-02-13T18:49:04;36.83;;;21.90;;
24407;SDS011;12542;50.924;4.516;2023-02-13T18:51:29;36.83;;;24.05;;
24407;SDS011;12542;50.924;4.516;2023-02-13T18:53:55;38.47;;;21.20;;
24407;SDS011;12542;50.924;4.516;2023-02-13T18:56:21;34.55;;;20.08;;
24407;SDS011;12542;50.924;4.516;2023-02-13T18:58:49;28.70;;;17.88;;
24407;SDS011;12542;50.924;4.516;2023-02-13T19:01:16;66.47;;;37.33;;
24407;SDS011;12542;50.924;4.516;2023-02-13T19:03:43;59.63;;;37.80;;
24407;SDS011;12542;50.924;4.516;2023-02-13T19:06:15;34.72;;;22.25;;
24407;SDS011;12542;50.924;4.516;2023-02-13T19:08:43;67.72;;;46.65;;
24407;SDS011;12542;50.924;4.516;2023-02-13T19:11:10;56.20;;;39.00;;
24407;SDS011;12542;50.924;4.516;2023-02-13T19:13:41;38.80;;;24.23;;
24407;SDS011;12542;50.924;4.516;2023-02-13T19:16:14;48.35;;;29.92;;
24407;SDS011;12542;50.924;4.516;2023-02-13T19:18:42;62.87;;;39.73;;
24407;SDS011;12542;50.924;4.516;2023-02-13T19:21:09;71.15;;;43.35;;
24407;SDS011;12542;50.924;4.516;2023-02-13T19:23:36;73.28;;;42.63;;
24407;SDS011;12542;50.924;4.516;2023-02-13T19:26:03;52.53;;;34.13;;
24407;SDS011;12542;50.924;4.516;2023-02-13T19:28:30;40.88;;;26.15;;
24407;SDS011;12542;50.924;4.516;2023-02-13T19:31:09;37.20;;;23.27;;
24407;SDS011;12542;50.924;4.516;2023-02-13T19:33:37;41.83;;;27.48;;
24407;SDS011;12542;50.924;4.516;2023-02-13T19:36:05;37.05;;;21.65;;
24407;SDS011;12542;50.924;4.516;2023-02-13T19:38:40;42.00;;;24.75;;
24407;SDS011;12542;50.924;4.516;2023-02-13T19:41:11;50.90;;;27.60;;
24407;SDS011;12542;50.924;4.516;2023-02-13T19:43:39;45.42;;;24.10;;
24407;SDS011;12542;50.924;4.516;2023-02-13T19:46:06;101.15;;;43.80;;
24407;SDS011;12542;50.924;4.516;2023-02-13T19:48:40;58.17;;;29.33;;
24407;SDS011;12542;50.924;4.516;2023-02-13T19:51:07;50.58;;;24.35;;
24407;SDS011;12542;50.924;4.516;2023-02-13T19:53:36;125.13;;;57.90;;
24407;SDS011;12542;50.924;4.516;2023-02-13T19:56:02;123.20;;;57.85;;
24407;SDS011;12542;50.924;4.516;2023-02-13T19:58:32;61.53;;;32.97;;
24407;SDS011;12542;50.924;4.516;2023-02-13T20:01:13;57.80;;;31.10;;
24407;SDS011;12542;50.924;4.516;2023-02-13T20:03:43;32.83;;;18.38;;
24407;SDS011;12542;50.924;4.516;2023-02-13T20:06:13;44.05;;;24.52;;
24407;SDS011;12542;50.924;4.516;2023-02-13T20:08:41;39.63;;;21.00;;
24407;SDS011;12542;50.924;4.516;2023-02-13T20:11:08;45.00;;;24.00;;
24407;SDS011;12542;50.924;4.516;2023-02-13T20:13:35;51.83;;;22.77;;
24407;SDS011;12542;50.924;4.516;2023-02-13T20:16:07;38.38;;;20.52;;
24407;SDS011;12542;50.924;4.516;2023-02-13T20:18:35;42.65;;;24.13;;
24407;SDS011;12542;50.924;4.516;2023-02-13T20:21:08;50.80;;;29.75;;
24407;SDS011;12542;50.924;4.516;2023-02-13T20:23:35;47.65;;;24.88;;
24407;SDS011;12542;50.924;4.516;2023-02-13T20:26:08;29.35;;;17.92;;
24407;SDS011;12542;50.924;4.516;2023-02-13T20:28:37;32.22;;;16.88;;
24407;SDS011;12542;50.924;4.516;2023-02-13T20:31:15;24.02;;;15.15;;
24407;SDS011;12542;50.924;4.516;2023-02-13T20:33:42;71.35;;;49.22;;
24407;SDS011;12542;50.924;4.516;2023-02-13T20:38:39;36.13;;;19.92;;
24407;SDS011;12542;50.924;4.516;2023-02-13T20:41:06;39.20;;;21.58;;
24407;SDS011;12542;50.924;4.516;2023-02-13T20:43:39;49.80;;;27.33;;
24407;SDS011;12542;50.924;4.516;2023-02-13T20:46:06;41.78;;;22.17;;
24407;SDS011;12542;50.924;4.516;2023-02-13T20:48:35;31.80;;;18.08;;
24407;SDS011;12542;50.924;4.516;2023-02-13T20:51:03;37.92;;;19.88;;
24407;SDS011;12542;50.924;4.516;2023-02-13T20:53:30;36.20;;;19.02;;